sensor_id;sensor_type;location;lat;lon;timestamp;pressure;altitude;pressure_sealevel;temperature;humidity
75409;BME280;63979;55.644;37.734;2023-10-19T00:03:49;99277.69;;;6.06;80.13
75409;BME280;63979;55.644;37.734;2023-10-19T00:08:50;99242.63;;;5.71;80.62
75409;BME280;63979;55.644;37.734;2023-10-19T00:13:53;99284.31;;;5.99;80.08
75409;BME280;63979;55.644;37.734;2023-10-19T00:18:55;99303.38;;;5.90;80.55
75409;BME280;63979;55.644;37.734;2023-10-19T00:23:59;99275.50;;;5.99;80.28
75409;BME280;63979;55.644;37.734;2023-10-19T00:29:05;99279.66;;;6.03;80.10
75409;BME280;63979;55.644;37.734;2023-10-19T00:34:18;99275.44;;;6.14;79.70
75409;BME280;63979;55.644;37.734;2023-10-19T00:39:22;99278.91;;;6.31;79.48
75409;BME280;63979;55.644;37.734;2023-10-19T00:44:23;99270.97;;;6.01;80.43
75409;BME280;63979;55.644;37.734;2023-10-19T00:49:36;99272.19;;;5.95;80.37
75409;BME280;63979;55.644;37.734;2023-10-19T00:54:40;99271.25;;;6.10;80.27
75409;BME280;63979;55.644;37.734;2023-10-19T01:00:04;99274.22;;;6.20;80.00
75409;BME280;63979;55.644;37.734;2023-10-19T01:05:22;99273.13;;;6.38;78.57
75409;BME280;63979;55.644;37.734;2023-10-19T01:10:23;99276.75;;;6.07;80.01
75409;BME280;63979;55.644;37.734;2023-10-19T01:15:24;99277.13;;;6.15;79.31
75409;BME280;63979;55.644;37.734;2023-10-19T01:20:30;99267.59;;;6.13;80.05
75409;BME280;63979;55.644;37.734;2023-10-19T01:25:30;99273.97;;;6.24;79.48
75409;BME280;63979;55.644;37.734;2023-10-19T01:30:36;99268.53;;;6.12;79.06
75409;BME280;63979;55.644;37.734;2023-10-19T01:35:37;99253.19;;;6.03;80.00
75409;BME280;63979;55.644;37.734;2023-10-19T01:40:57;99261.22;;;6.01;79.71
75409;BME280;63979;55.644;37.734;2023-10-19T01:46:00;99260.91;;;5.76;80.22
75409;BME280;63979;55.644;37.734;2023-10-19T01:51:13;99264.84;;;6.14;80.16
75409;BME280;63979;55.644;37.734;2023-10-19T01:56:15;99262.06;;;6.46;78.95
75409;BME280;63979;55.644;37.734;2023-10-19T02:01:18;99265.41;;;6.19;80.29
75409;BME280;63979;55.644;37.734;2023-10-19T02:06:30;99215.44;;;5.99;79.54
75409;BME280;63979;55.644;37.734;2023-10-19T02:11:35;99262.44;;;5.96;80.03
75409;BME280;63979;55.644;37.734;2023-10-19T02:16:43;99262.63;;;5.92;80.34
75409;BME280;63979;55.644;37.734;2023-10-19T02:21:44;99243.91;;;5.96;80.19
75409;BME280;63979;55.644;37.734;2023-10-19T02:26:56;99258.66;;;6.00;80.32
75409;BME280;63979;55.644;37.734;2023-10-19T02:31:57;99257.91;;;5.98;80.65
75409;BME280;63979;55.644;37.734;2023-10-19T02:37:04;99256.19;;;5.97;80.79
75409;BME280;63979;55.644;37.734;2023-10-19T02:42:05;99254.84;;;5.74;81.37
75409;BME280;63979;55.644;37.734;2023-10-19T02:47:05;99265.66;;;6.01;80.73
75409;BME280;63979;55.644;37.734;2023-10-19T02:52:09;99261.81;;;6.20;79.93
75409;BME280;63979;55.644;37.734;2023-10-19T02:57:13;99266.81;;;6.11;79.95
75409;BME280;63979;55.644;37.734;2023-10-19T03:02:14;99255.44;;;5.94;79.82
75409;BME280;63979;55.644;37.734;2023-10-19T03:07:15;99257.16;;;5.96;80.23
75409;BME280;63979;55.644;37.734;2023-10-19T03:12:16;99249.78;;;6.01;79.81
75409;BME280;63979;55.644;37.734;2023-10-19T03:17:17;99253.19;;;6.17;79.43
75409;BME280;63979;55.644;37.734;2023-10-19T03:22:19;99258.47;;;6.03;80.27
75409;BME280;63979;55.644;37.734;2023-10-19T03:27:20;99253.00;;;6.06;79.68
75409;BME280;63979;55.644;37.734;2023-10-19T03:32:24;99259.63;;;6.13;79.31
75409;BME280;63979;55.644;37.734;2023-10-19T03:37:32;99252.06;;;6.21;79.34
75409;BME280;63979;55.644;37.734;2023-10-19T03:42:35;99258.84;;;5.97;79.83
75409;BME280;63979;55.644;37.734;2023-10-19T03:47:41;99249.28;;;5.94;80.51
75409;BME280;63979;55.644;37.734;2023-10-19T03:52:44;99265.97;;;6.10;79.69
75409;BME280;63979;55.644;37.734;2023-10-19T03:57:45;99259.06;;;6.08;80.11
75409;BME280;63979;55.644;37.734;2023-10-19T04:02:55;99263.97;;;6.00;80.14
75409;BME280;63979;55.644;37.734;2023-10-19T04:07:56;99262.16;;;5.84;80.61
75409;BME280;63979;55.644;37.734;2023-10-19T04:12:58;99256.59;;;6.05;80.18
75409;BME280;63979;55.644;37.734;2023-10-19T04:18:03;99267.56;;;5.99;79.67
75409;BME280;63979;55.644;37.734;2023-10-19T04:23:09;99215.03;;;5.75;80.26
75409;BME280;63979;55.644;37.734;2023-10-19T04:28:15;99271.81;;;6.01;80.06
75409;BME280;63979;55.644;37.734;2023-10-19T04:33:18;99273.22;;;5.92;80.42
75409;BME280;63979;55.644;37.734;2023-10-19T04:38:19;99270.41;;;6.10;79.95
75409;BME280;63979;55.644;37.734;2023-10-19T04:43:20;99269.75;;;6.06;80.25
75409;BME280;63979;55.644;37.734;2023-10-19T04:48:22;99267.22;;;6.19;79.65
75409;BME280;63979;55.644;37.734;2023-10-19T04:53:22;99277.41;;;6.11;79.49
75409;BME280;63979;55.644;37.734;2023-10-19T04:58:23;99220.16;;;5.78;79.17
75409;BME280;63979;55.644;37.734;2023-10-19T05:03:25;99273.78;;;5.98;79.75
75409;BME280;63979;55.644;37.734;2023-10-19T05:08:26;99273.81;;;6.12;79.02
75409;BME280;63979;55.644;37.734;2023-10-19T05:13:29;99272.16;;;6.25;79.30
75409;BME280;63979;55.644;37.734;2023-10-19T05:18:30;99276.44;;;6.42;78.46
75409;BME280;63979;55.644;37.734;2023-10-19T05:23:31;99275.06;;;6.65;77.28
75409;BME280;63979;55.644;37.734;2023-10-19T05:28:33;99272.09;;;6.41;77.92
75409;BME280;63979;55.644;37.734;2023-10-19T05:33:34;99229.97;;;6.36;77.47
75409;BME280;63979;55.644;37.734;2023-10-19T05:38:34;99282.44;;;6.74;76.98
75409;BME280;63979;55.644;37.734;2023-10-19T05:43:35;99270.00;;;6.46;77.48
75409;BME280;63979;55.644;37.734;2023-10-19T05:48:36;99288.38;;;6.49;77.77
75409;BME280;63979;55.644;37.734;2023-10-19T05:53:37;99292.00;;;6.62;77.88
75409;BME280;63979;55.644;37.734;2023-10-19T05:58:37;99298.81;;;6.80;76.77
75409;BME280;63979;55.644;37.734;2023-10-19T06:03:38;99303.94;;;6.69;77.41
75409;BME280;63979;55.644;37.734;2023-10-19T06:08:42;99264.81;;;6.73;76.35
75409;BME280;63979;55.644;37.734;2023-10-19T06:13:43;99295.13;;;6.83;75.40
75409;BME280;63979;55.644;37.734;2023-10-19T06:18:43;99289.16;;;6.94;76.14
75409;BME280;63979;55.644;37.734;2023-10-19T06:23:44;99252.78;;;6.53;75.25
75409;BME280;63979;55.644;37.734;2023-10-19T06:28:45;99298.16;;;7.05;75.19
75409;BME280;63979;55.644;37.734;2023-10-19T06:33:45;99303.09;;;7.11;74.45
75409;BME280;63979;55.644;37.734;2023-10-19T06:38:46;99297.69;;;7.13;73.74
75409;BME280;63979;55.644;37.734;2023-10-19T06:43:48;99296.16;;;7.09;74.38
75409;BME280;63979;55.644;37.734;2023-10-19T06:48:49;99297.13;;;7.08;73.89
75409;BME280;63979;55.644;37.734;2023-10-19T06:53:52;99292.38;;;7.13;73.24
75409;BME280;63979;55.644;37.734;2023-10-19T06:58:53;99291.38;;;7.42;72.75
75409;BME280;63979;55.644;37.734;2023-10-19T07:03:54;99290.97;;;7.48;71.85
75409;BME280;63979;55.644;37.734;2023-10-19T07:08:57;99296.16;;;7.64;71.17
75409;BME280;63979;55.644;37.734;2023-10-19T07:13:58;99289.28;;;7.47;72.04
75409;BME280;63979;55.644;37.734;2023-10-19T07:18:59;99306.78;;;7.64;72.42
75409;BME280;63979;55.644;37.734;2023-10-19T07:24:01;99298.66;;;8.20;70.89
75409;BME280;63979;55.644;37.734;2023-10-19T07:29:06;99310.03;;;8.61;68.84
75409;BME280;63979;55.644;37.734;2023-10-19T07:34:10;99308.59;;;10.16;65.56
75409;BME280;63979;55.644;37.734;2023-10-19T07:39:15;99300.06;;;11.37;58.86
75409;BME280;63979;55.644;37.734;2023-10-19T07:44:19;99273.97;;;10.74;59.85
75409;BME280;63979;55.644;37.734;2023-10-19T07:49:20;99316.84;;;10.13;61.88
75409;BME280;63979;55.644;37.734;2023-10-19T07:54:22;99310.84;;;9.38;63.29
75409;BME280;63979;55.644;37.734;2023-10-19T07:59:23;99314.28;;;9.15;64.88
75409;BME280;63979;55.644;37.734;2023-10-19T08:04:24;99319.53;;;8.78;65.29
75409;BME280;63979;55.644;37.734;2023-10-19T08:09:25;99320.03;;;8.58;65.92
75409;BME280;63979;55.644;37.734;2023-10-19T08:14:32;99324.28;;;8.08;66.95
75409;BME280;63979;55.644;37.734;2023-10-19T08:19:33;99285.03;;;7.99;67.33
75409;BME280;63979;55.644;37.734;2023-10-19T08:24:34;99320.53;;;7.71;70.26
75409;BME280;63979;55.644;37.734;2023-10-19T08:29:35;99321.72;;;8.33;69.40
75409;BME280;63979;55.644;37.734;2023-10-19T08:34:36;99308.31;;;8.48;68.35
75409;BME280;63979;55.644;37.734;2023-10-19T08:39:37;99334.84;;;8.87;67.25
75409;BME280;63979;55.644;37.734;2023-10-19T08:44:38;99326.56;;;9.04;65.56
75409;BME280;63979;55.644;37.734;2023-10-19T08:49:39;99331.09;;;9.28;64.82
75409;BME280;63979;55.644;37.734;2023-10-19T08:54:39;99331.88;;;8.79;65.63
75409;BME280;63979;55.644;37.734;2023-10-19T08:59:40;99342.59;;;8.25;68.63
75409;BME280;63979;55.644;37.734;2023-10-19T09:04:42;99337.25;;;7.86;70.79
75409;BME280;63979;55.644;37.734;2023-10-19T09:09:45;99343.13;;;7.64;71.24
75409;BME280;63979;55.644;37.734;2023-10-19T09:14:48;99347.44;;;7.38;72.79
75409;BME280;63979;55.644;37.734;2023-10-19T09:19:50;99352.84;;;7.36;73.34
75409;BME280;63979;55.644;37.734;2023-10-19T09:24:52;99358.78;;;7.54;73.46
75409;BME280;63979;55.644;37.734;2023-10-19T09:29:56;99355.50;;;7.77;73.23
75409;BME280;63979;55.644;37.734;2023-10-19T09:34:57;99366.53;;;7.71;74.00
75409;BME280;63979;55.644;37.734;2023-10-19T09:39:58;99352.75;;;8.06;73.01
75409;BME280;63979;55.644;37.734;2023-10-19T09:44:59;99359.28;;;8.41;71.82
75409;BME280;63979;55.644;37.734;2023-10-19T09:50:06;99338.03;;;8.92;68.27
75409;BME280;63979;55.644;37.734;2023-10-19T09:55:24;99349.16;;;9.48;64.64
75409;BME280;63979;55.644;37.734;2023-10-19T10:00:29;99348.22;;;9.86;66.01
75409;BME280;63979;55.644;37.734;2023-10-19T10:10:38;99349.50;;;10.41;65.49
75409;BME280;63979;55.644;37.734;2023-10-19T10:15:41;99355.19;;;10.82;63.77
75409;BME280;63979;55.644;37.734;2023-10-19T10:20:42;99339.41;;;11.02;61.37
75409;BME280;63979;55.644;37.734;2023-10-19T10:25:45;99353.50;;;11.04;61.85
75409;BME280;63979;55.644;37.734;2023-10-19T10:31:11;99353.66;;;11.13;62.68
75409;BME280;63979;55.644;37.734;2023-10-19T10:36:16;99344.97;;;10.76;63.10
75409;BME280;63979;55.644;37.734;2023-10-19T10:41:24;99357.19;;;10.32;63.00
75409;BME280;63979;55.644;37.734;2023-10-19T10:46:32;99355.63;;;9.93;64.12
75409;BME280;63979;55.644;37.734;2023-10-19T10:51:33;99352.25;;;9.55;66.00
75409;BME280;63979;55.644;37.734;2023-10-19T10:56:39;99356.13;;;9.38;66.28
75409;BME280;63979;55.644;37.734;2023-10-19T11:01:40;99351.88;;;9.23;68.04
75409;BME280;63979;55.644;37.734;2023-10-19T11:06:54;99315.78;;;8.81;68.43
75409;BME280;63979;55.644;37.734;2023-10-19T11:11:57;99356.88;;;8.89;68.53
75409;BME280;63979;55.644;37.734;2023-10-19T11:17:11;99355.06;;;8.77;69.85
75409;BME280;63979;55.644;37.734;2023-10-19T11:22:14;99357.53;;;8.67;70.46
75409;BME280;63979;55.644;37.734;2023-10-19T11:27:22;99354.81;;;8.55;70.52
75409;BME280;63979;55.644;37.734;2023-10-19T11:32:36;99351.53;;;8.51;71.84
75409;BME280;63979;55.644;37.734;2023-10-19T11:37:49;99354.50;;;8.59;69.74
75409;BME280;63979;55.644;37.734;2023-10-19T11:42:50;99354.75;;;8.69;68.93
75409;BME280;63979;55.644;37.734;2023-10-19T11:47:52;99354.66;;;8.96;69.60
75409;BME280;63979;55.644;37.734;2023-10-19T11:52:54;99357.41;;;8.94;69.16
75409;BME280;63979;55.644;37.734;2023-10-19T11:57:56;99357.72;;;8.90;68.88
75409;BME280;63979;55.644;37.734;2023-10-19T12:02:57;99354.97;;;8.79;67.67
75409;BME280;63979;55.644;37.734;2023-10-19T12:07:58;99363.34;;;8.60;66.89
75409;BME280;63979;55.644;37.734;2023-10-19T12:12:59;99361.56;;;8.73;67.92
75409;BME280;63979;55.644;37.734;2023-10-19T12:18:00;99350.81;;;8.74;67.73
75409;BME280;63979;55.644;37.734;2023-10-19T12:23:03;99362.00;;;8.92;67.66
75409;BME280;63979;55.644;37.734;2023-10-19T12:28:05;99368.16;;;8.67;68.92
75409;BME280;63979;55.644;37.734;2023-10-19T12:33:08;99369.13;;;8.92;68.49
75409;BME280;63979;55.644;37.734;2023-10-19T12:38:12;99359.88;;;8.72;69.01
75409;BME280;63979;55.644;37.734;2023-10-19T12:43:18;99374.91;;;8.33;71.98
75409;BME280;63979;55.644;37.734;2023-10-19T12:48:20;99363.56;;;8.30;67.81
75409;BME280;63979;55.644;37.734;2023-10-19T12:53:26;99359.28;;;8.27;65.93
75409;BME280;63979;55.644;37.734;2023-10-19T12:58:27;99371.44;;;8.31;67.46
75409;BME280;63979;55.644;37.734;2023-10-19T13:03:29;99376.91;;;8.16;68.10
75409;BME280;63979;55.644;37.734;2023-10-19T13:08:33;99377.78;;;8.16;68.97
75409;BME280;63979;55.644;37.734;2023-10-19T13:13:33;99374.25;;;8.16;69.42
75409;BME280;63979;55.644;37.734;2023-10-19T13:18:36;99373.66;;;8.25;69.13
75409;BME280;63979;55.644;37.734;2023-10-19T13:23:37;99374.91;;;8.19;71.53
75409;BME280;63979;55.644;37.734;2023-10-19T13:28:38;99375.47;;;8.24;71.21
75409;BME280;63979;55.644;37.734;2023-10-19T13:33:39;99392.56;;;8.20;71.68
75409;BME280;63979;55.644;37.734;2023-10-19T13:38:44;99383.09;;;8.16;71.75
75409;BME280;63979;55.644;37.734;2023-10-19T13:43:45;99386.72;;;8.15;71.67
75409;BME280;63979;55.644;37.734;2023-10-19T13:48:47;99381.19;;;8.18;70.01
75409;BME280;63979;55.644;37.734;2023-10-19T13:53:48;99387.59;;;8.28;70.06
75409;BME280;63979;55.644;37.734;2023-10-19T13:58:51;99403.34;;;8.31;70.10
75409;BME280;63979;55.644;37.734;2023-10-19T14:03:52;99398.44;;;8.25;71.23
75409;BME280;63979;55.644;37.734;2023-10-19T14:08:55;99399.03;;;8.16;71.70
75409;BME280;63979;55.644;37.734;2023-10-19T14:13:56;99408.19;;;8.12;71.67
75409;BME280;63979;55.644;37.734;2023-10-19T14:18:57;99403.66;;;8.00;72.89
75409;BME280;63979;55.644;37.734;2023-10-19T14:23:57;99400.19;;;8.12;71.81
75409;BME280;63979;55.644;37.734;2023-10-19T14:28:58;99413.69;;;8.09;72.50
75409;BME280;63979;55.644;37.734;2023-10-19T14:33:59;99406.88;;;8.05;72.48
75409;BME280;63979;55.644;37.734;2023-10-19T14:39:00;99378.06;;;7.85;72.41
75409;BME280;63979;55.644;37.734;2023-10-19T14:44:01;99419.63;;;8.00;73.70
75409;BME280;63979;55.644;37.734;2023-10-19T14:49:03;99382.06;;;7.77;75.02
75409;BME280;63979;55.644;37.734;2023-10-19T14:54:04;99389.28;;;7.75;75.79
75409;BME280;63979;55.644;37.734;2023-10-19T14:59:05;99407.19;;;7.86;76.94
75409;BME280;63979;55.644;37.734;2023-10-19T15:04:06;99427.94;;;7.94;76.54
75409;BME280;63979;55.644;37.734;2023-10-19T15:09:07;99434.88;;;7.96;76.82
75409;BME280;63979;55.644;37.734;2023-10-19T15:14:15;99425.50;;;7.91;76.62
75409;BME280;63979;55.644;37.734;2023-10-19T15:19:16;99433.75;;;7.86;76.99
75409;BME280;63979;55.644;37.734;2023-10-19T15:24:19;99424.38;;;7.80;77.30
75409;BME280;63979;55.644;37.734;2023-10-19T15:29:20;99433.41;;;7.78;77.17
75409;BME280;63979;55.644;37.734;2023-10-19T15:34:21;99435.91;;;7.67;78.43
75409;BME280;63979;55.644;37.734;2023-10-19T15:39:21;99390.66;;;7.40;79.01
75409;BME280;63979;55.644;37.734;2023-10-19T15:44:24;99442.06;;;7.53;79.23
75409;BME280;63979;55.644;37.734;2023-10-19T15:49:26;99435.13;;;7.50;79.50
75409;BME280;63979;55.644;37.734;2023-10-19T15:54:27;99444.91;;;7.36;80.50
75409;BME280;63979;55.644;37.734;2023-10-19T15:59:28;99440.53;;;7.49;80.24
75409;BME280;63979;55.644;37.734;2023-10-19T16:04:29;99433.97;;;7.55;78.78
75409;BME280;63979;55.644;37.734;2023-10-19T16:09:30;99431.72;;;7.48;79.44
75409;BME280;63979;55.644;37.734;2023-10-19T16:14:30;99403.94;;;7.40;78.73
75409;BME280;63979;55.644;37.734;2023-10-19T16:19:31;99439.97;;;7.58;79.68
75409;BME280;63979;55.644;37.734;2023-10-19T16:24:33;99438.81;;;7.62;78.89
75409;BME280;63979;55.644;37.734;2023-10-19T16:29:34;99437.91;;;7.63;78.94
75409;BME280;63979;55.644;37.734;2023-10-19T16:34:35;99439.75;;;7.61;78.54
75409;BME280;63979;55.644;37.734;2023-10-19T16:39:37;99431.22;;;7.56;79.33
75409;BME280;63979;55.644;37.734;2023-10-19T16:44:38;99443.09;;;7.50;79.14
75409;BME280;63979;55.644;37.734;2023-10-19T16:49:39;99404.59;;;7.15;80.05
75409;BME280;63979;55.644;37.734;2023-10-19T16:54:39;99442.44;;;7.33;80.81
75409;BME280;63979;55.644;37.734;2023-10-19T16:59:40;99454.97;;;7.31;81.51
75409;BME280;63979;55.644;37.734;2023-10-19T17:04:41;99454.28;;;7.41;81.43
75409;BME280;63979;55.644;37.734;2023-10-19T17:09:42;99444.13;;;7.48;81.65
75409;BME280;63979;55.644;37.734;2023-10-19T17:14:43;99434.47;;;7.47;81.27
75409;BME280;63979;55.644;37.734;2023-10-19T17:19:44;99443.38;;;7.46;81.60
75409;BME280;63979;55.644;37.734;2023-10-19T17:24:47;99392.94;;;7.17;80.80
75409;BME280;63979;55.644;37.734;2023-10-19T17:29:47;99443.28;;;7.47;81.00
75409;BME280;63979;55.644;37.734;2023-10-19T17:34:48;99437.50;;;7.41;80.96
75409;BME280;63979;55.644;37.734;2023-10-19T17:39:50;99442.63;;;7.44;81.08
75409;BME280;63979;55.644;37.734;2023-10-19T17:44:50;99443.28;;;7.47;80.88
75409;BME280;63979;55.644;37.734;2023-10-19T17:49:51;99448.22;;;7.54;80.22
75409;BME280;63979;55.644;37.734;2023-10-19T17:54:52;99440.53;;;7.49;79.79
75409;BME280;63979;55.644;37.734;2023-10-19T17:59:53;99463.50;;;7.50;79.78
75409;BME280;63979;55.644;37.734;2023-10-19T18:04:54;99455.63;;;7.48;79.17
75409;BME280;63979;55.644;37.734;2023-10-19T18:09:55;99465.94;;;7.53;79.39
75409;BME280;63979;55.644;37.734;2023-10-19T18:14:56;99462.34;;;7.54;79.52
75409;BME280;63979;55.644;37.734;2023-10-19T18:20:00;99475.53;;;7.56;79.86
75409;BME280;63979;55.644;37.734;2023-10-19T18:25:01;99475.44;;;7.57;79.15
75409;BME280;63979;55.644;37.734;2023-10-19T18:30:05;99480.00;;;7.41;79.01
75409;BME280;63979;55.644;37.734;2023-10-19T18:35:10;99474.34;;;7.03;78.07
75409;BME280;63979;55.644;37.734;2023-10-19T18:40:11;99484.91;;;6.88;79.79
75409;BME280;63979;55.644;37.734;2023-10-19T18:45:13;99491.03;;;6.75;80.12
75409;BME280;63979;55.644;37.734;2023-10-19T18:50:14;99459.75;;;6.66;80.03
75409;BME280;63979;55.644;37.734;2023-10-19T18:55:15;99497.50;;;6.85;79.78
75409;BME280;63979;55.644;37.734;2023-10-19T19:00:23;99505.53;;;6.83;80.50
75409;BME280;63979;55.644;37.734;2023-10-19T19:05:27;99509.13;;;6.98;80.27
75409;BME280;63979;55.644;37.734;2023-10-19T19:10:29;99502.03;;;7.13;77.69
75409;BME280;63979;55.644;37.734;2023-10-19T19:15:33;99498.91;;;7.20;76.77
75409;BME280;63979;55.644;37.734;2023-10-19T19:20:37;99463.25;;;6.96;77.22
75409;BME280;63979;55.644;37.734;2023-10-19T19:25:40;99512.75;;;7.26;77.29
75409;BME280;63979;55.644;37.734;2023-10-19T19:30:40;99510.91;;;7.42;77.09
75409;BME280;63979;55.644;37.734;2023-10-19T19:35:42;99527.16;;;7.22;78.18
75409;BME280;63979;55.644;37.734;2023-10-19T19:40:42;99480.41;;;6.75;77.08
75409;BME280;63979;55.644;37.734;2023-10-19T19:45:43;99519.06;;;6.95;78.69
75409;BME280;63979;55.644;37.734;2023-10-19T19:50:44;99528.75;;;6.80;78.66
75409;BME280;63979;55.644;37.734;2023-10-19T19:55:45;99520.78;;;6.96;78.06
75409;BME280;63979;55.644;37.734;2023-10-19T20:00:47;99503.53;;;7.03;77.50
75409;BME280;63979;55.644;37.734;2023-10-19T20:05:48;99519.88;;;7.25;76.79
75409;BME280;63979;55.644;37.734;2023-10-19T20:10:49;99500.47;;;7.39;76.37
75409;BME280;63979;55.644;37.734;2023-10-19T20:15:50;99497.22;;;7.19;75.57
75409;BME280;63979;55.644;37.734;2023-10-19T20:20:51;99464.59;;;7.03;76.13
75409;BME280;63979;55.644;37.734;2023-10-19T20:25:53;99508.78;;;7.18;75.99
75409;BME280;63979;55.644;37.734;2023-10-19T20:30:53;99526.41;;;7.19;75.75
75409;BME280;63979;55.644;37.734;2023-10-19T20:35:54;99523.72;;;7.05;76.62
75409;BME280;63979;55.644;37.734;2023-10-19T20:40:55;99523.34;;;6.97;76.91
75409;BME280;63979;55.644;37.734;2023-10-19T20:45:56;99530.84;;;6.89;77.45
75409;BME280;63979;55.644;37.734;2023-10-19T20:50:56;99534.72;;;6.99;77.16
75409;BME280;63979;55.644;37.734;2023-10-19T20:56:00;99532.94;;;6.84;77.62
75409;BME280;63979;55.644;37.734;2023-10-19T21:01:05;99535.00;;;6.79;78.34
75409;BME280;63979;55.644;37.734;2023-10-19T21:06:12;99530.47;;;6.81;77.61
75409;BME280;63979;55.644;37.734;2023-10-19T21:11:17;99543.81;;;7.09;76.69
75409;BME280;63979;55.644;37.734;2023-10-19T21:16:18;99540.19;;;6.96;77.31
75409;BME280;63979;55.644;37.734;2023-10-19T21:21:19;99534.28;;;6.91;77.39
75409;BME280;63979;55.644;37.734;2023-10-19T21:26:20;99542.31;;;7.05;77.07
75409;BME280;63979;55.644;37.734;2023-10-19T21:31:21;99538.34;;;7.12;77.03
75409;BME280;63979;55.644;37.734;2023-10-19T21:36:22;99552.66;;;7.24;76.89
75409;BME280;63979;55.644;37.734;2023-10-19T21:41:24;99542.72;;;7.28;76.83
75409;BME280;63979;55.644;37.734;2023-10-19T21:46:27;99554.53;;;7.38;76.86
75409;BME280;63979;55.644;37.734;2023-10-19T21:51:27;99554.72;;;7.35;76.86
75409;BME280;63979;55.644;37.734;2023-10-19T21:56:28;99554.91;;;7.32;76.87
75409;BME280;63979;55.644;37.734;2023-10-19T22:01:29;99554.03;;;7.31;76.75
75409;BME280;63979;55.644;37.734;2023-10-19T22:06:30;99559.00;;;7.07;76.79
75409;BME280;63979;55.644;37.734;2023-10-19T22:11:32;99563.53;;;7.05;77.78
75409;BME280;63979;55.644;37.734;2023-10-19T22:16:34;99566.66;;;6.82;78.00
75409;BME280;63979;55.644;37.734;2023-10-19T22:21:35;99564.47;;;7.04;77.54
75409;BME280;63979;55.644;37.734;2023-10-19T22:26:39;99569.81;;;7.18;77.16
75409;BME280;63979;55.644;37.734;2023-10-19T22:31:40;99571.78;;;7.31;76.13
75409;BME280;63979;55.644;37.734;2023-10-19T22:36:41;99566.22;;;7.19;76.10
75409;BME280;63979;55.644;37.734;2023-10-19T22:41:42;99562.00;;;7.01;76.91
75409;BME280;63979;55.644;37.734;2023-10-19T22:46:43;99563.53;;;7.05;77.70
75409;BME280;63979;55.644;37.734;2023-10-19T22:51:44;99550.19;;;6.91;77.89
75409;BME280;63979;55.644;37.734;2023-10-19T22:56:45;99578.03;;;6.84;79.02
75409;BME280;63979;55.644;37.734;2023-10-19T23:01:45;99559.56;;;6.67;78.36
75409;BME280;63979;55.644;37.734;2023-10-19T23:06:46;99570.44;;;6.62;80.04
75409;BME280;63979;55.644;37.734;2023-10-19T23:11:47;99580.22;;;6.62;80.32
75409;BME280;63979;55.644;37.734;2023-10-19T23:17:08;99581.75;;;6.66;80.24
75409;BME280;63979;55.644;37.734;2023-10-19T23:22:09;99570.25;;;6.81;79.88
75409;BME280;63979;55.644;37.734;2023-10-19T23:27:10;99570.16;;;6.82;79.13
75409;BME280;63979;55.644;37.734;2023-10-19T23:32:14;99574.16;;;7.05;78.80
75409;BME280;63979;55.644;37.734;2023-10-19T23:37:17;99564.03;;;7.12;78.71
75409;BME280;63979;55.644;37.734;2023-10-19T23:42:18;99582.81;;;7.23;78.09
75409;BME280;63979;55.644;37.734;2023-10-19T23:47:18;99577.56;;;7.07;78.81
75409;BME280;63979;55.644;37.734;2023-10-19T23:52:19;99569.59;;;7.07;78.61
75409;BME280;63979;55.644;37.734;2023-10-19T23:57:20;99579.41;;;7.21;78.66
